sensor_id;sensor_type;location;lat;lon;timestamp;temperature;humidity
14555;DHT22;7364;50.870;4.722;2023-11-21T00:00:16;10.60;99.90
14555;DHT22;7364;50.870;4.722;2023-11-21T00:02:44;10.80;99.90
14555;DHT22;7364;50.870;4.722;2023-11-21T00:05:13;10.80;99.90
14555;DHT22;7364;50.870;4.722;2023-11-21T00:07:42;10.90;99.90
14555;DHT22;7364;50.870;4.722;2023-11-21T00:10:10;11.00;99.90
14555;DHT22;7364;50.870;4.722;2023-11-21T00:12:40;11.00;99.90
14555;DHT22;7364;50.870;4.722;2023-11-21T00:15:08;10.90;99.90
14555;DHT22;7364;50.870;4.722;2023-11-21T00:17:36;10.90;99.90
14555;DHT22;7364;50.870;4.722;2023-11-21T00:20:04;10.90;99.90
14555;DHT22;7364;50.870;4.722;2023-11-21T00:22:32;10.90;99.90
14555;DHT22;7364;50.870;4.722;2023-11-21T00:25:01;10.90;99.90
14555;DHT22;7364;50.870;4.722;2023-11-21T00:27:29;10.80;99.90
14555;DHT22;7364;50.870;4.722;2023-11-21T00:29:56;10.80;99.90
14555;DHT22;7364;50.870;4.722;2023-11-21T00:32:24;10.70;99.90
14555;DHT22;7364;50.870;4.722;2023-11-21T00:34:51;10.50;99.90
14555;DHT22;7364;50.870;4.722;2023-11-21T00:37:18;10.40;99.90
14555;DHT22;7364;50.870;4.722;2023-11-21T00:39:45;10.30;99.90
14555;DHT22;7364;50.870;4.722;2023-11-21T00:42:13;10.40;99.90
14555;DHT22;7364;50.870;4.722;2023-11-21T00:44:41;10.60;99.90
14555;DHT22;7364;50.870;4.722;2023-11-21T00:47:08;10.70;99.90
14555;DHT22;7364;50.870;4.722;2023-11-21T00:49:35;10.80;99.90
14555;DHT22;7364;50.870;4.722;2023-11-21T00:52:02;10.90;99.90
14555;DHT22;7364;50.870;4.722;2023-11-21T00:54:30;11.10;99.90
14555;DHT22;7364;50.870;4.722;2023-11-21T00:56:57;11.20;99.90
14555;DHT22;7364;50.870;4.722;2023-11-21T00:59:26;11.00;99.90
14555;DHT22;7364;50.870;4.722;2023-11-21T01:01:53;10.90;99.90
14555;DHT22;7364;50.870;4.722;2023-11-21T01:04:20;10.80;99.90
14555;DHT22;7364;50.870;4.722;2023-11-21T01:06:47;10.70;99.90
14555;DHT22;7364;50.870;4.722;2023-11-21T01:09:14;10.80;99.90
14555;DHT22;7364;50.870;4.722;2023-11-21T01:11:44;10.70;99.90
14555;DHT22;7364;50.870;4.722;2023-11-21T01:14:12;10.70;99.90
14555;DHT22;7364;50.870;4.722;2023-11-21T01:16:41;10.70;99.90
14555;DHT22;7364;50.870;4.722;2023-11-21T01:19:08;10.90;99.90
14555;DHT22;7364;50.870;4.722;2023-11-21T01:21:35;10.90;99.90
14555;DHT22;7364;50.870;4.722;2023-11-21T01:24:03;10.80;99.90
14555;DHT22;7364;50.870;4.722;2023-11-21T01:26:33;10.80;99.90
14555;DHT22;7364;50.870;4.722;2023-11-21T01:29:00;10.80;99.90
14555;DHT22;7364;50.870;4.722;2023-11-21T01:31:27;10.90;99.90
14555;DHT22;7364;50.870;4.722;2023-11-21T01:33:56;10.90;99.90
14555;DHT22;7364;50.870;4.722;2023-11-21T01:36:30;10.90;99.90
14555;DHT22;7364;50.870;4.722;2023-11-21T01:38:59;11.00;99.90
14555;DHT22;7364;50.870;4.722;2023-11-21T01:41:26;11.00;99.90
14555;DHT22;7364;50.870;4.722;2023-11-21T01:43:55;11.10;99.90
14555;DHT22;7364;50.870;4.722;2023-11-21T01:46:22;11.10;99.90
14555;DHT22;7364;50.870;4.722;2023-11-21T01:48:50;11.10;99.90
14555;DHT22;7364;50.870;4.722;2023-11-21T01:51:18;11.00;99.90
14555;DHT22;7364;50.870;4.722;2023-11-21T01:53:46;11.10;99.90
14555;DHT22;7364;50.870;4.722;2023-11-21T01:56:13;11.10;99.90
14555;DHT22;7364;50.870;4.722;2023-11-21T01:58:41;11.20;99.90
14555;DHT22;7364;50.870;4.722;2023-11-21T02:01:09;11.10;99.90
14555;DHT22;7364;50.870;4.722;2023-11-21T02:03:36;11.10;99.90
14555;DHT22;7364;50.870;4.722;2023-11-21T02:06:04;11.10;99.90
14555;DHT22;7364;50.870;4.722;2023-11-21T02:08:33;11.30;99.90
14555;DHT22;7364;50.870;4.722;2023-11-21T02:11:03;11.30;99.90
14555;DHT22;7364;50.870;4.722;2023-11-21T02:13:31;11.30;99.90
14555;DHT22;7364;50.870;4.722;2023-11-21T02:15:58;11.30;99.90
14555;DHT22;7364;50.870;4.722;2023-11-21T02:18:25;10.90;99.90
14555;DHT22;7364;50.870;4.722;2023-11-21T02:20:55;10.70;99.90
14555;DHT22;7364;50.870;4.722;2023-11-21T02:23:24;10.80;99.90
14555;DHT22;7364;50.870;4.722;2023-11-21T02:25:54;10.60;99.90
14555;DHT22;7364;50.870;4.722;2023-11-21T02:28:21;10.60;99.90
14555;DHT22;7364;50.870;4.722;2023-11-21T02:30:51;10.40;99.90
14555;DHT22;7364;50.870;4.722;2023-11-21T02:33:21;10.30;99.90
14555;DHT22;7364;50.870;4.722;2023-11-21T02:35:49;10.20;99.90
14555;DHT22;7364;50.870;4.722;2023-11-21T02:38:20;10.00;99.90
14555;DHT22;7364;50.870;4.722;2023-11-21T02:40:48;9.90;99.90
14555;DHT22;7364;50.870;4.722;2023-11-21T02:43:16;9.90;99.90
14555;DHT22;7364;50.870;4.722;2023-11-21T02:45:43;10.00;99.90
14555;DHT22;7364;50.870;4.722;2023-11-21T02:48:10;10.20;99.90
14555;DHT22;7364;50.870;4.722;2023-11-21T02:50:37;10.50;99.90
14555;DHT22;7364;50.870;4.722;2023-11-21T02:53:04;10.70;99.90
14555;DHT22;7364;50.870;4.722;2023-11-21T02:55:32;10.80;99.90
14555;DHT22;7364;50.870;4.722;2023-11-21T02:58:02;10.80;99.90
14555;DHT22;7364;50.870;4.722;2023-11-21T03:03:01;11.00;99.90
14555;DHT22;7364;50.870;4.722;2023-11-21T03:05:29;11.10;99.90
14555;DHT22;7364;50.870;4.722;2023-11-21T03:07:57;11.20;99.90
14555;DHT22;7364;50.870;4.722;2023-11-21T03:10:25;11.20;99.90
14555;DHT22;7364;50.870;4.722;2023-11-21T03:12:53;11.20;99.90
14555;DHT22;7364;50.870;4.722;2023-11-21T03:15:21;11.20;99.90
14555;DHT22;7364;50.870;4.722;2023-11-21T03:17:48;11.20;99.90
14555;DHT22;7364;50.870;4.722;2023-11-21T03:20:16;11.20;99.90
14555;DHT22;7364;50.870;4.722;2023-11-21T03:22:45;11.30;99.90
14555;DHT22;7364;50.870;4.722;2023-11-21T03:25:12;11.30;99.90
14555;DHT22;7364;50.870;4.722;2023-11-21T03:27:40;11.40;99.90
14555;DHT22;7364;50.870;4.722;2023-11-21T03:30:08;11.40;99.90
14555;DHT22;7364;50.870;4.722;2023-11-21T03:32:38;11.50;99.90
14555;DHT22;7364;50.870;4.722;2023-11-21T03:35:05;11.60;99.90
14555;DHT22;7364;50.870;4.722;2023-11-21T03:37:33;11.60;99.90
14555;DHT22;7364;50.870;4.722;2023-11-21T03:40:00;11.70;99.90
14555;DHT22;7364;50.870;4.722;2023-11-21T03:42:30;11.70;99.90
14555;DHT22;7364;50.870;4.722;2023-11-21T03:44:57;11.70;99.90
14555;DHT22;7364;50.870;4.722;2023-11-21T03:47:25;11.70;99.90
14555;DHT22;7364;50.870;4.722;2023-11-21T03:49:54;11.60;99.90
14555;DHT22;7364;50.870;4.722;2023-11-21T03:52:21;11.60;99.90
14555;DHT22;7364;50.870;4.722;2023-11-21T03:54:48;11.60;99.90
14555;DHT22;7364;50.870;4.722;2023-11-21T03:57:16;11.60;99.90
14555;DHT22;7364;50.870;4.722;2023-11-21T03:59:43;11.60;99.90
14555;DHT22;7364;50.870;4.722;2023-11-21T04:02:11;11.60;99.90
14555;DHT22;7364;50.870;4.722;2023-11-21T04:04:38;11.60;99.90
14555;DHT22;7364;50.870;4.722;2023-11-21T04:07:07;11.70;99.90
14555;DHT22;7364;50.870;4.722;2023-11-21T04:09:34;11.70;99.90
14555;DHT22;7364;50.870;4.722;2023-11-21T04:12:02;11.80;99.90
14555;DHT22;7364;50.870;4.722;2023-11-21T04:14:29;11.80;99.90
14555;DHT22;7364;50.870;4.722;2023-11-21T04:16:56;11.70;99.90
14555;DHT22;7364;50.870;4.722;2023-11-21T04:19:23;11.70;99.90
14555;DHT22;7364;50.870;4.722;2023-11-21T04:21:51;11.60;99.90
14555;DHT22;7364;50.870;4.722;2023-11-21T04:24:20;11.60;99.90
14555;DHT22;7364;50.870;4.722;2023-11-21T04:26:47;11.70;99.90
14555;DHT22;7364;50.870;4.722;2023-11-21T04:29:14;11.70;99.90
14555;DHT22;7364;50.870;4.722;2023-11-21T04:31:41;11.70;99.90
14555;DHT22;7364;50.870;4.722;2023-11-21T04:34:08;11.70;99.90
14555;DHT22;7364;50.870;4.722;2023-11-21T04:36:36;11.70;99.90
14555;DHT22;7364;50.870;4.722;2023-11-21T04:39:03;11.70;99.90
14555;DHT22;7364;50.870;4.722;2023-11-21T04:41:33;11.70;99.90
14555;DHT22;7364;50.870;4.722;2023-11-21T04:44:02;11.50;99.90
14555;DHT22;7364;50.870;4.722;2023-11-21T04:46:30;11.40;99.90
14555;DHT22;7364;50.870;4.722;2023-11-21T04:48:57;11.30;99.90
14555;DHT22;7364;50.870;4.722;2023-11-21T04:51:25;11.50;99.90
14555;DHT22;7364;50.870;4.722;2023-11-21T04:53:52;11.60;99.90
14555;DHT22;7364;50.870;4.722;2023-11-21T04:56:20;11.70;99.90
14555;DHT22;7364;50.870;4.722;2023-11-21T04:58:48;11.80;99.90
14555;DHT22;7364;50.870;4.722;2023-11-21T05:01:16;11.80;99.90
14555;DHT22;7364;50.870;4.722;2023-11-21T05:03:43;11.80;99.90
14555;DHT22;7364;50.870;4.722;2023-11-21T05:06:10;11.80;99.90
14555;DHT22;7364;50.870;4.722;2023-11-21T05:08:37;11.80;99.90
14555;DHT22;7364;50.870;4.722;2023-11-21T05:11:05;11.80;99.90
14555;DHT22;7364;50.870;4.722;2023-11-21T05:13:34;11.80;99.90
14555;DHT22;7364;50.870;4.722;2023-11-21T05:16:03;11.80;99.90
14555;DHT22;7364;50.870;4.722;2023-11-21T05:18:32;11.90;99.90
14555;DHT22;7364;50.870;4.722;2023-11-21T05:21:00;11.90;99.90
14555;DHT22;7364;50.870;4.722;2023-11-21T05:23:27;11.80;99.90
14555;DHT22;7364;50.870;4.722;2023-11-21T05:25:54;11.90;99.90
14555;DHT22;7364;50.870;4.722;2023-11-21T05:28:22;11.90;99.90
14555;DHT22;7364;50.870;4.722;2023-11-21T05:30:50;11.90;99.90
14555;DHT22;7364;50.870;4.722;2023-11-21T05:33:18;11.90;99.90
14555;DHT22;7364;50.870;4.722;2023-11-21T05:35:45;11.90;99.90
14555;DHT22;7364;50.870;4.722;2023-11-21T05:38:14;11.90;99.90
14555;DHT22;7364;50.870;4.722;2023-11-21T05:40:40;12.00;99.90
14555;DHT22;7364;50.870;4.722;2023-11-21T05:43:07;11.90;99.90
14555;DHT22;7364;50.870;4.722;2023-11-21T05:45:34;11.90;99.90
14555;DHT22;7364;50.870;4.722;2023-11-21T05:48:01;11.80;99.90
14555;DHT22;7364;50.870;4.722;2023-11-21T05:50:31;11.80;99.90
14555;DHT22;7364;50.870;4.722;2023-11-21T05:52:59;11.80;99.90
14555;DHT22;7364;50.870;4.722;2023-11-21T05:55:26;11.70;99.90
14555;DHT22;7364;50.870;4.722;2023-11-21T05:57:54;11.50;99.90
14555;DHT22;7364;50.870;4.722;2023-11-21T06:00:21;11.50;99.90
14555;DHT22;7364;50.870;4.722;2023-11-21T06:02:49;11.50;99.90
14555;DHT22;7364;50.870;4.722;2023-11-21T06:05:19;11.60;99.90
14555;DHT22;7364;50.870;4.722;2023-11-21T06:07:48;11.70;99.90
14555;DHT22;7364;50.870;4.722;2023-11-21T06:10:15;11.80;99.90
14555;DHT22;7364;50.870;4.722;2023-11-21T06:12:45;11.80;99.90
14555;DHT22;7364;50.870;4.722;2023-11-21T06:15:12;11.60;99.90
14555;DHT22;7364;50.870;4.722;2023-11-21T06:17:40;11.60;99.90
14555;DHT22;7364;50.870;4.722;2023-11-21T06:20:10;11.60;99.90
14555;DHT22;7364;50.870;4.722;2023-11-21T06:22:41;11.50;99.90
14555;DHT22;7364;50.870;4.722;2023-11-21T06:25:11;11.50;99.90
14555;DHT22;7364;50.870;4.722;2023-11-21T06:27:40;11.40;99.90
14555;DHT22;7364;50.870;4.722;2023-11-21T06:30:08;11.40;99.90
14555;DHT22;7364;50.870;4.722;2023-11-21T06:32:36;11.40;99.90
14555;DHT22;7364;50.870;4.722;2023-11-21T06:35:04;11.40;99.90
14555;DHT22;7364;50.870;4.722;2023-11-21T06:37:32;11.50;99.90
14555;DHT22;7364;50.870;4.722;2023-11-21T06:40:00;11.60;99.90
14555;DHT22;7364;50.870;4.722;2023-11-21T06:42:31;11.70;99.90
14555;DHT22;7364;50.870;4.722;2023-11-21T06:44:59;11.90;99.90
14555;DHT22;7364;50.870;4.722;2023-11-21T06:47:30;12.00;99.90
14555;DHT22;7364;50.870;4.722;2023-11-21T06:49:57;12.10;99.90
14555;DHT22;7364;50.870;4.722;2023-11-21T06:52:24;12.10;99.90
14555;DHT22;7364;50.870;4.722;2023-11-21T06:54:51;12.10;99.90
14555;DHT22;7364;50.870;4.722;2023-11-21T06:57:18;12.10;99.90
14555;DHT22;7364;50.870;4.722;2023-11-21T06:59:47;12.10;99.90
14555;DHT22;7364;50.870;4.722;2023-11-21T07:02:14;12.00;99.90
14555;DHT22;7364;50.870;4.722;2023-11-21T07:04:44;12.20;99.90
14555;DHT22;7364;50.870;4.722;2023-11-21T07:07:12;12.20;99.90
14555;DHT22;7364;50.870;4.722;2023-11-21T07:09:39;12.20;99.90
14555;DHT22;7364;50.870;4.722;2023-11-21T07:12:07;12.10;99.90
14555;DHT22;7364;50.870;4.722;2023-11-21T07:14:34;12.20;99.90
14555;DHT22;7364;50.870;4.722;2023-11-21T07:17:03;12.10;99.90
14555;DHT22;7364;50.870;4.722;2023-11-21T07:19:29;12.00;99.90
14555;DHT22;7364;50.870;4.722;2023-11-21T07:21:56;11.90;99.90
14555;DHT22;7364;50.870;4.722;2023-11-21T07:24:24;11.80;99.90
14555;DHT22;7364;50.870;4.722;2023-11-21T07:26:52;11.80;99.90
14555;DHT22;7364;50.870;4.722;2023-11-21T07:29:23;11.80;99.90
14555;DHT22;7364;50.870;4.722;2023-11-21T07:31:52;11.70;99.90
14555;DHT22;7364;50.870;4.722;2023-11-21T07:34:21;11.60;99.90
14555;DHT22;7364;50.870;4.722;2023-11-21T07:36:48;11.70;99.90
14555;DHT22;7364;50.870;4.722;2023-11-21T07:39:15;11.60;99.90
14555;DHT22;7364;50.870;4.722;2023-11-21T07:41:43;11.50;99.90
14555;DHT22;7364;50.870;4.722;2023-11-21T07:44:15;11.40;99.90
14555;DHT22;7364;50.870;4.722;2023-11-21T07:46:43;11.30;99.90
14555;DHT22;7364;50.870;4.722;2023-11-21T07:49:10;11.20;99.90
14555;DHT22;7364;50.870;4.722;2023-11-21T07:51:39;11.30;99.90
14555;DHT22;7364;50.870;4.722;2023-11-21T07:54:06;11.30;99.90
14555;DHT22;7364;50.870;4.722;2023-11-21T07:56:33;11.40;99.90
14555;DHT22;7364;50.870;4.722;2023-11-21T07:59:00;11.50;99.90
14555;DHT22;7364;50.870;4.722;2023-11-21T08:01:28;11.60;99.90
14555;DHT22;7364;50.870;4.722;2023-11-21T08:03:55;11.60;99.90
14555;DHT22;7364;50.870;4.722;2023-11-21T08:06:25;11.80;99.90
14555;DHT22;7364;50.870;4.722;2023-11-21T08:08:53;12.00;99.90
14555;DHT22;7364;50.870;4.722;2023-11-21T08:11:21;12.20;99.90
14555;DHT22;7364;50.870;4.722;2023-11-21T08:13:48;12.20;99.90
14555;DHT22;7364;50.870;4.722;2023-11-21T08:16:15;12.10;99.90
14555;DHT22;7364;50.870;4.722;2023-11-21T08:18:42;12.00;99.90
14555;DHT22;7364;50.870;4.722;2023-11-21T08:21:11;12.00;99.90
14555;DHT22;7364;50.870;4.722;2023-11-21T08:23:40;11.80;99.90
14555;DHT22;7364;50.870;4.722;2023-11-21T08:26:09;11.80;99.90
14555;DHT22;7364;50.870;4.722;2023-11-21T08:28:36;11.60;99.90
14555;DHT22;7364;50.870;4.722;2023-11-21T08:31:03;11.60;99.90
14555;DHT22;7364;50.870;4.722;2023-11-21T08:33:31;11.60;99.90
14555;DHT22;7364;50.870;4.722;2023-11-21T08:35:59;11.60;99.90
14555;DHT22;7364;50.870;4.722;2023-11-21T08:38:27;11.60;99.90
14555;DHT22;7364;50.870;4.722;2023-11-21T08:40:54;11.50;99.90
14555;DHT22;7364;50.870;4.722;2023-11-21T08:43:23;11.70;99.90
14555;DHT22;7364;50.870;4.722;2023-11-21T08:45:53;11.80;99.90
14555;DHT22;7364;50.870;4.722;2023-11-21T08:48:20;11.90;99.90
14555;DHT22;7364;50.870;4.722;2023-11-21T08:50:48;12.00;99.90
14555;DHT22;7364;50.870;4.722;2023-11-21T08:53:16;11.90;99.90
14555;DHT22;7364;50.870;4.722;2023-11-21T08:55:43;12.00;99.90
14555;DHT22;7364;50.870;4.722;2023-11-21T08:58:11;11.90;99.90
14555;DHT22;7364;50.870;4.722;2023-11-21T09:00:40;11.50;99.90
14555;DHT22;7364;50.870;4.722;2023-11-21T09:03:07;11.50;99.90
14555;DHT22;7364;50.870;4.722;2023-11-21T09:05:37;11.70;99.90
14555;DHT22;7364;50.870;4.722;2023-11-21T09:08:05;11.80;99.90
14555;DHT22;7364;50.870;4.722;2023-11-21T09:10:34;11.90;99.90
14555;DHT22;7364;50.870;4.722;2023-11-21T09:13:02;12.20;99.90
14555;DHT22;7364;50.870;4.722;2023-11-21T09:15:29;12.40;99.90
14555;DHT22;7364;50.870;4.722;2023-11-21T09:17:58;12.60;99.90
14555;DHT22;7364;50.870;4.722;2023-11-21T09:20:26;12.70;99.90
14555;DHT22;7364;50.870;4.722;2023-11-21T09:22:54;12.70;99.90
14555;DHT22;7364;50.870;4.722;2023-11-21T09:25:22;12.50;99.90
14555;DHT22;7364;50.870;4.722;2023-11-21T09:27:49;12.30;99.90
14555;DHT22;7364;50.870;4.722;2023-11-21T09:30:16;12.00;99.90
14555;DHT22;7364;50.870;4.722;2023-11-21T09:32:44;11.80;99.90
14555;DHT22;7364;50.870;4.722;2023-11-21T09:35:13;11.90;99.90
14555;DHT22;7364;50.870;4.722;2023-11-21T09:37:40;11.80;99.90
14555;DHT22;7364;50.870;4.722;2023-11-21T09:40:10;11.80;99.90
14555;DHT22;7364;50.870;4.722;2023-11-21T09:42:42;11.90;99.90
14555;DHT22;7364;50.870;4.722;2023-11-21T09:45:16;12.00;99.90
14555;DHT22;7364;50.870;4.722;2023-11-21T09:47:49;11.90;99.90
14555;DHT22;7364;50.870;4.722;2023-11-21T09:50:20;12.00;99.90
14555;DHT22;7364;50.870;4.722;2023-11-21T09:52:55;11.80;99.90
14555;DHT22;7364;50.870;4.722;2023-11-21T09:55:27;11.80;99.90
14555;DHT22;7364;50.870;4.722;2023-11-21T09:57:56;12.00;99.90
14555;DHT22;7364;50.870;4.722;2023-11-21T10:00:23;11.90;99.90
14555;DHT22;7364;50.870;4.722;2023-11-21T10:02:52;12.00;99.90
14555;DHT22;7364;50.870;4.722;2023-11-21T10:05:21;12.20;99.90
14555;DHT22;7364;50.870;4.722;2023-11-21T10:07:50;12.50;99.90
14555;DHT22;7364;50.870;4.722;2023-11-21T10:10:19;12.80;99.90
14555;DHT22;7364;50.870;4.722;2023-11-21T10:12:53;13.20;99.90
14555;DHT22;7364;50.870;4.722;2023-11-21T10:15:23;13.20;99.90
14555;DHT22;7364;50.870;4.722;2023-11-21T10:17:52;13.10;99.90
14555;DHT22;7364;50.870;4.722;2023-11-21T10:20:22;12.80;99.90
14555;DHT22;7364;50.870;4.722;2023-11-21T10:22:50;12.30;99.90
14555;DHT22;7364;50.870;4.722;2023-11-21T10:25:17;12.00;99.90
14555;DHT22;7364;50.870;4.722;2023-11-21T10:27:47;11.90;99.90
14555;DHT22;7364;50.870;4.722;2023-11-21T10:30:16;11.80;99.90
14555;DHT22;7364;50.870;4.722;2023-11-21T10:32:44;11.70;99.90
14555;DHT22;7364;50.870;4.722;2023-11-21T10:35:12;11.50;99.90
14555;DHT22;7364;50.870;4.722;2023-11-21T10:37:40;11.40;99.90
14555;DHT22;7364;50.870;4.722;2023-11-21T10:40:10;11.50;99.90
14555;DHT22;7364;50.870;4.722;2023-11-21T10:42:38;11.80;99.90
14555;DHT22;7364;50.870;4.722;2023-11-21T10:45:08;11.80;99.90
14555;DHT22;7364;50.870;4.722;2023-11-21T10:47:39;11.80;99.90
14555;DHT22;7364;50.870;4.722;2023-11-21T10:50:07;11.70;99.90
14555;DHT22;7364;50.870;4.722;2023-11-21T10:52:37;11.60;99.90
14555;DHT22;7364;50.870;4.722;2023-11-21T10:55:17;11.60;99.90
14555;DHT22;7364;50.870;4.722;2023-11-21T10:57:48;11.60;99.90
14555;DHT22;7364;50.870;4.722;2023-11-21T11:00:17;11.50;99.90
14555;DHT22;7364;50.870;4.722;2023-11-21T11:02:49;11.30;99.90
14555;DHT22;7364;50.870;4.722;2023-11-21T11:05:19;11.10;99.90
14555;DHT22;7364;50.870;4.722;2023-11-21T11:07:49;11.20;99.90
14555;DHT22;7364;50.870;4.722;2023-11-21T11:10:21;11.20;99.90
14555;DHT22;7364;50.870;4.722;2023-11-21T11:12:53;11.20;99.90
14555;DHT22;7364;50.870;4.722;2023-11-21T11:15:21;11.40;99.90
14555;DHT22;7364;50.870;4.722;2023-11-21T11:17:49;11.50;99.90
14555;DHT22;7364;50.870;4.722;2023-11-21T11:20:17;11.60;99.90
14555;DHT22;7364;50.870;4.722;2023-11-21T11:22:56;11.70;99.90
14555;DHT22;7364;50.870;4.722;2023-11-21T11:25:39;11.60;99.90
14555;DHT22;7364;50.870;4.722;2023-11-21T11:28:17;11.60;99.90
14555;DHT22;7364;50.870;4.722;2023-11-21T11:30:55;11.70;99.90
14555;DHT22;7364;50.870;4.722;2023-11-21T11:33:34;11.70;99.90
14555;DHT22;7364;50.870;4.722;2023-11-21T11:36:06;11.50;99.90
14555;DHT22;7364;50.870;4.722;2023-11-21T11:38:34;11.40;99.90
14555;DHT22;7364;50.870;4.722;2023-11-21T11:41:04;11.60;99.90
14555;DHT22;7364;50.870;4.722;2023-11-21T11:43:32;11.50;99.90
14555;DHT22;7364;50.870;4.722;2023-11-21T11:46:10;11.50;99.90
14555;DHT22;7364;50.870;4.722;2023-11-21T11:48:39;11.50;99.90
14555;DHT22;7364;50.870;4.722;2023-11-21T11:51:10;11.60;99.90
14555;DHT22;7364;50.870;4.722;2023-11-21T11:53:39;11.60;99.90
14555;DHT22;7364;50.870;4.722;2023-11-21T11:56:25;11.50;99.90
14555;DHT22;7364;50.870;4.722;2023-11-21T11:58:53;11.50;99.90
14555;DHT22;7364;50.870;4.722;2023-11-21T12:01:21;11.60;99.90
14555;DHT22;7364;50.870;4.722;2023-11-21T12:04:23;11.80;99.90
14555;DHT22;7364;50.870;4.722;2023-11-21T12:07:02;11.90;99.90
14555;DHT22;7364;50.870;4.722;2023-11-21T12:09:31;12.00;99.90
14555;DHT22;7364;50.870;4.722;2023-11-21T12:12:00;12.10;99.90
14555;DHT22;7364;50.870;4.722;2023-11-21T12:14:28;12.10;99.90
14555;DHT22;7364;50.870;4.722;2023-11-21T12:16:55;12.10;99.90
14555;DHT22;7364;50.870;4.722;2023-11-21T12:19:22;12.30;99.90
14555;DHT22;7364;50.870;4.722;2023-11-21T12:21:50;12.50;99.90
14555;DHT22;7364;50.870;4.722;2023-11-21T12:24:18;12.50;99.90
14555;DHT22;7364;50.870;4.722;2023-11-21T12:26:45;12.40;99.90
14555;DHT22;7364;50.870;4.722;2023-11-21T12:29:14;12.50;99.90
14555;DHT22;7364;50.870;4.722;2023-11-21T12:31:42;12.60;99.90
14555;DHT22;7364;50.870;4.722;2023-11-21T12:34:10;12.80;99.90
14555;DHT22;7364;50.870;4.722;2023-11-21T12:36:38;12.90;99.90
14555;DHT22;7364;50.870;4.722;2023-11-21T12:39:05;13.10;99.90
14555;DHT22;7364;50.870;4.722;2023-11-21T12:41:35;13.30;99.90
14555;DHT22;7364;50.870;4.722;2023-11-21T12:44:02;13.00;99.90
14555;DHT22;7364;50.870;4.722;2023-11-21T12:46:31;12.80;99.90
14555;DHT22;7364;50.870;4.722;2023-11-21T12:49:00;12.80;99.90
14555;DHT22;7364;50.870;4.722;2023-11-21T12:51:27;12.70;99.90
14555;DHT22;7364;50.870;4.722;2023-11-21T12:53:55;12.50;99.90
14555;DHT22;7364;50.870;4.722;2023-11-21T12:56:24;12.40;99.90
14555;DHT22;7364;50.870;4.722;2023-11-21T12:58:54;12.30;99.90
14555;DHT22;7364;50.870;4.722;2023-11-21T13:01:26;12.30;99.90
14555;DHT22;7364;50.870;4.722;2023-11-21T13:03:57;12.20;99.90
14555;DHT22;7364;50.870;4.722;2023-11-21T13:06:25;12.30;99.90
14555;DHT22;7364;50.870;4.722;2023-11-21T13:08:54;12.30;99.90
14555;DHT22;7364;50.870;4.722;2023-11-21T13:11:22;12.30;99.90
14555;DHT22;7364;50.870;4.722;2023-11-21T13:13:51;12.30;99.90
14555;DHT22;7364;50.870;4.722;2023-11-21T13:16:20;12.40;99.90
14555;DHT22;7364;50.870;4.722;2023-11-21T13:18:47;12.40;99.90
14555;DHT22;7364;50.870;4.722;2023-11-21T13:21:16;12.70;99.90
14555;DHT22;7364;50.870;4.722;2023-11-21T13:23:43;12.80;99.90
14555;DHT22;7364;50.870;4.722;2023-11-21T13:26:11;13.10;99.90
14555;DHT22;7364;50.870;4.722;2023-11-21T13:28:40;13.20;99.90
14555;DHT22;7364;50.870;4.722;2023-11-21T13:31:12;13.40;99.90
14555;DHT22;7364;50.870;4.722;2023-11-21T13:33:52;13.30;99.90
14555;DHT22;7364;50.870;4.722;2023-11-21T13:36:26;13.40;99.90
14555;DHT22;7364;50.870;4.722;2023-11-21T13:38:56;13.50;99.90
14555;DHT22;7364;50.870;4.722;2023-11-21T13:41:24;13.40;99.90
14555;DHT22;7364;50.870;4.722;2023-11-21T13:43:56;13.20;99.90
14555;DHT22;7364;50.870;4.722;2023-11-21T13:46:30;12.90;99.90
14555;DHT22;7364;50.870;4.722;2023-11-21T13:49:02;12.70;99.90
14555;DHT22;7364;50.870;4.722;2023-11-21T13:51:37;12.70;99.90
14555;DHT22;7364;50.870;4.722;2023-11-21T13:54:07;12.60;99.90
14555;DHT22;7364;50.870;4.722;2023-11-21T13:56:35;12.60;99.90
14555;DHT22;7364;50.870;4.722;2023-11-21T13:59:04;12.60;99.90
14555;DHT22;7364;50.870;4.722;2023-11-21T14:01:39;12.50;99.90
14555;DHT22;7364;50.870;4.722;2023-11-21T14:04:21;12.50;99.90
14555;DHT22;7364;50.870;4.722;2023-11-21T14:07:02;12.40;99.90
14555;DHT22;7364;50.870;4.722;2023-11-21T14:09:46;12.30;99.90
14555;DHT22;7364;50.870;4.722;2023-11-21T14:12:15;12.30;99.90
14555;DHT22;7364;50.870;4.722;2023-11-21T14:14:42;12.20;99.90
14555;DHT22;7364;50.870;4.722;2023-11-21T14:17:11;12.50;99.90
14555;DHT22;7364;50.870;4.722;2023-11-21T14:19:38;12.60;99.90
14555;DHT22;7364;50.870;4.722;2023-11-21T14:22:10;12.70;99.90
14555;DHT22;7364;50.870;4.722;2023-11-21T14:24:37;12.90;99.90
14555;DHT22;7364;50.870;4.722;2023-11-21T14:27:09;13.10;99.90
14555;DHT22;7364;50.870;4.722;2023-11-21T14:29:36;13.30;99.90
14555;DHT22;7364;50.870;4.722;2023-11-21T14:32:06;13.30;99.90
14555;DHT22;7364;50.870;4.722;2023-11-21T14:34:33;13.50;99.90
14555;DHT22;7364;50.870;4.722;2023-11-21T14:37:00;13.50;99.90
14555;DHT22;7364;50.870;4.722;2023-11-21T14:39:31;13.40;99.90
14555;DHT22;7364;50.870;4.722;2023-11-21T14:42:04;13.40;99.90
14555;DHT22;7364;50.870;4.722;2023-11-21T14:44:34;13.30;99.90
14555;DHT22;7364;50.870;4.722;2023-11-21T14:47:05;13.30;99.90
14555;DHT22;7364;50.870;4.722;2023-11-21T14:49:41;13.30;99.90
14555;DHT22;7364;50.870;4.722;2023-11-21T14:52:18;13.10;99.90
14555;DHT22;7364;50.870;4.722;2023-11-21T14:55:00;13.10;99.90
14555;DHT22;7364;50.870;4.722;2023-11-21T14:57:41;13.10;99.90
14555;DHT22;7364;50.870;4.722;2023-11-21T15:00:14;13.00;99.90
14555;DHT22;7364;50.870;4.722;2023-11-21T15:03:01;13.00;99.90
14555;DHT22;7364;50.870;4.722;2023-11-21T15:05:29;13.00;99.90
14555;DHT22;7364;50.870;4.722;2023-11-21T15:07:56;12.80;99.90
14555;DHT22;7364;50.870;4.722;2023-11-21T15:10:37;12.70;99.90
14555;DHT22;7364;50.870;4.722;2023-11-21T15:13:12;12.30;99.90
14555;DHT22;7364;50.870;4.722;2023-11-21T15:15:40;12.20;99.90
14555;DHT22;7364;50.870;4.722;2023-11-21T15:18:08;12.10;99.90
14555;DHT22;7364;50.870;4.722;2023-11-21T15:20:37;12.20;99.90
14555;DHT22;7364;50.870;4.722;2023-11-21T15:23:06;12.10;99.90
14555;DHT22;7364;50.870;4.722;2023-11-21T15:25:34;12.10;99.90
14555;DHT22;7364;50.870;4.722;2023-11-21T15:28:03;12.20;99.90
14555;DHT22;7364;50.870;4.722;2023-11-21T15:30:31;12.30;99.90
14555;DHT22;7364;50.870;4.722;2023-11-21T15:32:58;12.30;99.90
14555;DHT22;7364;50.870;4.722;2023-11-21T15:35:26;12.40;99.90
14555;DHT22;7364;50.870;4.722;2023-11-21T15:37:54;12.30;99.90
14555;DHT22;7364;50.870;4.722;2023-11-21T15:40:23;12.20;99.90
14555;DHT22;7364;50.870;4.722;2023-11-21T15:42:51;12.20;99.90
14555;DHT22;7364;50.870;4.722;2023-11-21T15:45:20;12.20;99.90
14555;DHT22;7364;50.870;4.722;2023-11-21T15:47:50;12.30;99.90
14555;DHT22;7364;50.870;4.722;2023-11-21T15:50:18;12.40;99.90
14555;DHT22;7364;50.870;4.722;2023-11-21T15:52:45;12.40;99.90
14555;DHT22;7364;50.870;4.722;2023-11-21T15:55:13;12.50;99.90
14555;DHT22;7364;50.870;4.722;2023-11-21T15:57:40;12.40;99.90
14555;DHT22;7364;50.870;4.722;2023-11-21T16:00:09;12.40;99.90